sensor_id;sensor_type;location;lat;lon;timestamp;temperature;humidity
17423;DHT22;8829;47.932;7.810;2023-03-13T00:00:57;12.00;99.90
17423;DHT22;8829;47.932;7.810;2023-03-13T00:03:24;12.00;99.90
17423;DHT22;8829;47.932;7.810;2023-03-13T00:05:54;12.00;99.90
17423;DHT22;8829;47.932;7.810;2023-03-13T00:08:23;12.00;99.90
17423;DHT22;8829;47.932;7.810;2023-03-13T00:10:49;12.00;99.90
17423;DHT22;8829;47.932;7.810;2023-03-13T00:13:16;12.00;99.90
17423;DHT22;8829;47.932;7.810;2023-03-13T00:15:43;12.00;99.90
17423;DHT22;8829;47.932;7.810;2023-03-13T00:18:10;12.00;99.90
17423;DHT22;8829;47.932;7.810;2023-03-13T00:20:36;12.00;99.90
17423;DHT22;8829;47.932;7.810;2023-03-13T00:23:03;12.00;99.90
17423;DHT22;8829;47.932;7.810;2023-03-13T00:25:31;12.00;99.90
17423;DHT22;8829;47.932;7.810;2023-03-13T00:27:57;12.00;99.90
17423;DHT22;8829;47.932;7.810;2023-03-13T00:30:24;12.00;99.90
17423;DHT22;8829;47.932;7.810;2023-03-13T00:32:51;12.10;99.90
17423;DHT22;8829;47.932;7.810;2023-03-13T00:35:18;12.10;99.90
17423;DHT22;8829;47.932;7.810;2023-03-13T00:37:44;12.10;99.90
17423;DHT22;8829;47.932;7.810;2023-03-13T00:40:11;12.10;99.90
17423;DHT22;8829;47.932;7.810;2023-03-13T00:42:39;12.10;99.90
17423;DHT22;8829;47.932;7.810;2023-03-13T00:45:06;12.10;99.90
17423;DHT22;8829;47.932;7.810;2023-03-13T00:47:33;12.20;99.90
17423;DHT22;8829;47.932;7.810;2023-03-13T00:50:00;12.20;99.90
17423;DHT22;8829;47.932;7.810;2023-03-13T00:52:26;12.20;99.90
17423;DHT22;8829;47.932;7.810;2023-03-13T00:54:53;12.20;99.90
17423;DHT22;8829;47.932;7.810;2023-03-13T00:57:20;12.20;99.90
17423;DHT22;8829;47.932;7.810;2023-03-13T00:59:48;12.20;99.90
17423;DHT22;8829;47.932;7.810;2023-03-13T01:02:14;12.20;99.90
17423;DHT22;8829;47.932;7.810;2023-03-13T01:04:41;12.30;99.90
17423;DHT22;8829;47.932;7.810;2023-03-13T01:07:10;12.30;99.90
17423;DHT22;8829;47.932;7.810;2023-03-13T01:09:36;12.30;99.90
17423;DHT22;8829;47.932;7.810;2023-03-13T01:12:03;12.30;99.90
17423;DHT22;8829;47.932;7.810;2023-03-13T01:14:30;12.40;99.90
17423;DHT22;8829;47.932;7.810;2023-03-13T01:16:58;12.40;99.90
17423;DHT22;8829;47.932;7.810;2023-03-13T01:19:25;12.30;99.90
17423;DHT22;8829;47.932;7.810;2023-03-13T01:21:51;12.30;99.90
17423;DHT22;8829;47.932;7.810;2023-03-13T01:24:18;12.30;99.90
17423;DHT22;8829;47.932;7.810;2023-03-13T01:26:45;12.40;99.90
17423;DHT22;8829;47.932;7.810;2023-03-13T01:29:12;12.40;99.90
17423;DHT22;8829;47.932;7.810;2023-03-13T01:31:39;12.30;99.90
17423;DHT22;8829;47.932;7.810;2023-03-13T01:34:09;12.30;99.90
17423;DHT22;8829;47.932;7.810;2023-03-13T01:36:36;12.20;99.90
17423;DHT22;8829;47.932;7.810;2023-03-13T01:39:03;12.20;99.90
17423;DHT22;8829;47.932;7.810;2023-03-13T01:41:30;12.10;99.90
17423;DHT22;8829;47.932;7.810;2023-03-13T01:43:57;12.10;99.90
17423;DHT22;8829;47.932;7.810;2023-03-13T01:46:25;12.10;99.90
17423;DHT22;8829;47.932;7.810;2023-03-13T01:48:56;12.10;99.90
17423;DHT22;8829;47.932;7.810;2023-03-13T01:51:28;12.10;99.90
17423;DHT22;8829;47.932;7.810;2023-03-13T01:54:00;12.10;99.90
17423;DHT22;8829;47.932;7.810;2023-03-13T01:56:35;12.10;99.90
17423;DHT22;8829;47.932;7.810;2023-03-13T01:59:04;12.10;99.90
17423;DHT22;8829;47.932;7.810;2023-03-13T02:01:32;12.10;99.90
17423;DHT22;8829;47.932;7.810;2023-03-13T02:03:59;12.20;99.90
17423;DHT22;8829;47.932;7.810;2023-03-13T02:06:30;12.20;99.90
17423;DHT22;8829;47.932;7.810;2023-03-13T02:09:00;12.10;99.90
17423;DHT22;8829;47.932;7.810;2023-03-13T02:11:36;12.10;99.90
17423;DHT22;8829;47.932;7.810;2023-03-13T02:14:05;12.00;99.90
17423;DHT22;8829;47.932;7.810;2023-03-13T02:16:33;12.00;99.90
17423;DHT22;8829;47.932;7.810;2023-03-13T02:19:02;12.00;99.90
17423;DHT22;8829;47.932;7.810;2023-03-13T02:21:41;12.00;99.90
17423;DHT22;8829;47.932;7.810;2023-03-13T02:24:13;12.00;99.90
17423;DHT22;8829;47.932;7.810;2023-03-13T02:26:44;12.00;99.90
17423;DHT22;8829;47.932;7.810;2023-03-13T02:29:12;12.00;99.90
17423;DHT22;8829;47.932;7.810;2023-03-13T02:31:44;12.00;99.90
17423;DHT22;8829;47.932;7.810;2023-03-13T02:34:13;12.00;99.90
17423;DHT22;8829;47.932;7.810;2023-03-13T02:36:41;12.10;99.90
17423;DHT22;8829;47.932;7.810;2023-03-13T02:39:11;12.10;99.90
17423;DHT22;8829;47.932;7.810;2023-03-13T02:41:39;12.10;99.90
17423;DHT22;8829;47.932;7.810;2023-03-13T02:44:08;12.10;99.90
17423;DHT22;8829;47.932;7.810;2023-03-13T02:46:43;12.10;99.90
17423;DHT22;8829;47.932;7.810;2023-03-13T02:49:19;12.10;99.90
17423;DHT22;8829;47.932;7.810;2023-03-13T02:51:46;12.10;99.90
17423;DHT22;8829;47.932;7.810;2023-03-13T02:54:18;12.10;99.90
17423;DHT22;8829;47.932;7.810;2023-03-13T02:56:47;12.10;99.90
17423;DHT22;8829;47.932;7.810;2023-03-13T02:59:16;12.00;99.90
17423;DHT22;8829;47.932;7.810;2023-03-13T03:01:42;12.10;99.90
17423;DHT22;8829;47.932;7.810;2023-03-13T03:04:09;12.10;99.90
17423;DHT22;8829;47.932;7.810;2023-03-13T03:06:37;12.00;99.90
17423;DHT22;8829;47.932;7.810;2023-03-13T03:09:04;12.00;99.90
17423;DHT22;8829;47.932;7.810;2023-03-13T03:11:31;12.00;99.90
17423;DHT22;8829;47.932;7.810;2023-03-13T03:13:57;12.00;99.90
17423;DHT22;8829;47.932;7.810;2023-03-13T03:16:25;11.90;99.90
17423;DHT22;8829;47.932;7.810;2023-03-13T03:18:52;11.90;99.90
17423;DHT22;8829;47.932;7.810;2023-03-13T03:21:18;11.90;99.90
17423;DHT22;8829;47.932;7.810;2023-03-13T03:23:45;11.90;99.90
17423;DHT22;8829;47.932;7.810;2023-03-13T03:26:12;11.90;99.90
17423;DHT22;8829;47.932;7.810;2023-03-13T03:28:40;11.80;99.90
17423;DHT22;8829;47.932;7.810;2023-03-13T03:31:09;11.80;99.90
17423;DHT22;8829;47.932;7.810;2023-03-13T03:33:37;11.80;99.90
17423;DHT22;8829;47.932;7.810;2023-03-13T03:36:06;11.80;99.90
17423;DHT22;8829;47.932;7.810;2023-03-13T03:38:33;11.70;99.90
17423;DHT22;8829;47.932;7.810;2023-03-13T03:41:00;11.70;99.90
17423;DHT22;8829;47.932;7.810;2023-03-13T03:43:27;11.70;99.90
17423;DHT22;8829;47.932;7.810;2023-03-13T03:45:55;11.70;99.90
17423;DHT22;8829;47.932;7.810;2023-03-13T03:48:22;11.70;99.90
17423;DHT22;8829;47.932;7.810;2023-03-13T03:50:50;11.60;99.90
17423;DHT22;8829;47.932;7.810;2023-03-13T03:53:17;11.60;99.90
17423;DHT22;8829;47.932;7.810;2023-03-13T03:55:44;11.50;99.90
17423;DHT22;8829;47.932;7.810;2023-03-13T03:58:10;11.50;99.90
17423;DHT22;8829;47.932;7.810;2023-03-13T04:00:37;11.40;99.90
17423;DHT22;8829;47.932;7.810;2023-03-13T04:03:04;11.40;99.90
17423;DHT22;8829;47.932;7.810;2023-03-13T04:05:31;11.40;99.90
17423;DHT22;8829;47.932;7.810;2023-03-13T04:07:59;11.40;99.90
17423;DHT22;8829;47.932;7.810;2023-03-13T04:10:25;11.50;99.90
17423;DHT22;8829;47.932;7.810;2023-03-13T04:12:52;11.50;99.90
17423;DHT22;8829;47.932;7.810;2023-03-13T04:15:19;11.50;99.90
17423;DHT22;8829;47.932;7.810;2023-03-13T04:17:45;11.60;99.90
17423;DHT22;8829;47.932;7.810;2023-03-13T04:20:12;11.60;99.90
17423;DHT22;8829;47.932;7.810;2023-03-13T04:22:39;11.70;99.90
17423;DHT22;8829;47.932;7.810;2023-03-13T04:25:08;11.70;99.90
17423;DHT22;8829;47.932;7.810;2023-03-13T04:27:36;11.70;99.90
17423;DHT22;8829;47.932;7.810;2023-03-13T04:30:03;11.70;99.90
17423;DHT22;8829;47.932;7.810;2023-03-13T04:32:30;11.80;99.90
17423;DHT22;8829;47.932;7.810;2023-03-13T04:34:57;11.80;99.90
17423;DHT22;8829;47.932;7.810;2023-03-13T04:37:24;11.80;99.90
17423;DHT22;8829;47.932;7.810;2023-03-13T04:39:50;11.80;99.90
17423;DHT22;8829;47.932;7.810;2023-03-13T04:42:18;11.80;99.90
17423;DHT22;8829;47.932;7.810;2023-03-13T04:44:45;11.80;99.90
17423;DHT22;8829;47.932;7.810;2023-03-13T04:47:12;11.80;99.90
17423;DHT22;8829;47.932;7.810;2023-03-13T04:49:38;11.80;99.90
17423;DHT22;8829;47.932;7.810;2023-03-13T04:52:06;11.80;99.90
17423;DHT22;8829;47.932;7.810;2023-03-13T04:54:32;11.80;99.90
17423;DHT22;8829;47.932;7.810;2023-03-13T04:56:59;11.80;99.90
17423;DHT22;8829;47.932;7.810;2023-03-13T04:59:27;11.80;99.90
17423;DHT22;8829;47.932;7.810;2023-03-13T05:01:55;11.70;99.90
17423;DHT22;8829;47.932;7.810;2023-03-13T05:04:23;11.70;99.90
17423;DHT22;8829;47.932;7.810;2023-03-13T05:06:50;11.50;99.90
17423;DHT22;8829;47.932;7.810;2023-03-13T05:09:17;11.50;99.90
17423;DHT22;8829;47.932;7.810;2023-03-13T05:11:43;11.40;99.90
17423;DHT22;8829;47.932;7.810;2023-03-13T05:14:10;11.40;99.90
17423;DHT22;8829;47.932;7.810;2023-03-13T05:16:38;11.40;99.90
17423;DHT22;8829;47.932;7.810;2023-03-13T05:19:06;11.40;99.90
17423;DHT22;8829;47.932;7.810;2023-03-13T05:21:33;11.40;99.90
17423;DHT22;8829;47.932;7.810;2023-03-13T05:24:00;11.30;99.90
17423;DHT22;8829;47.932;7.810;2023-03-13T05:26:26;11.30;99.90
17423;DHT22;8829;47.932;7.810;2023-03-13T05:28:53;11.30;99.90
17423;DHT22;8829;47.932;7.810;2023-03-13T05:31:20;11.20;99.90
17423;DHT22;8829;47.932;7.810;2023-03-13T05:33:48;11.20;99.90
17423;DHT22;8829;47.932;7.810;2023-03-13T05:36:15;11.20;99.90
17423;DHT22;8829;47.932;7.810;2023-03-13T05:38:41;11.30;99.90
17423;DHT22;8829;47.932;7.810;2023-03-13T05:41:08;11.30;99.90
17423;DHT22;8829;47.932;7.810;2023-03-13T05:43:35;11.40;99.90
17423;DHT22;8829;47.932;7.810;2023-03-13T05:46:02;11.50;99.90
17423;DHT22;8829;47.932;7.810;2023-03-13T05:48:29;11.50;99.90
17423;DHT22;8829;47.932;7.810;2023-03-13T05:50:57;11.60;99.90
17423;DHT22;8829;47.932;7.810;2023-03-13T05:53:23;11.70;99.90
17423;DHT22;8829;47.932;7.810;2023-03-13T05:55:50;11.70;99.90
17423;DHT22;8829;47.932;7.810;2023-03-13T05:58:17;11.70;99.90
17423;DHT22;8829;47.932;7.810;2023-03-13T06:00:46;11.80;99.90
17423;DHT22;8829;47.932;7.810;2023-03-13T06:03:13;11.80;99.90
17423;DHT22;8829;47.932;7.810;2023-03-13T06:05:39;11.80;99.90
17423;DHT22;8829;47.932;7.810;2023-03-13T06:08:07;11.80;99.90
17423;DHT22;8829;47.932;7.810;2023-03-13T06:10:34;11.80;99.90
17423;DHT22;8829;47.932;7.810;2023-03-13T06:13:01;11.80;99.90
17423;DHT22;8829;47.932;7.810;2023-03-13T06:15:28;11.90;99.90
17423;DHT22;8829;47.932;7.810;2023-03-13T06:17:54;11.90;99.90
17423;DHT22;8829;47.932;7.810;2023-03-13T06:20:21;11.90;99.90
17423;DHT22;8829;47.932;7.810;2023-03-13T06:22:48;11.90;99.90
17423;DHT22;8829;47.932;7.810;2023-03-13T06:25:16;12.00;99.90
17423;DHT22;8829;47.932;7.810;2023-03-13T06:27:43;12.00;99.90
17423;DHT22;8829;47.932;7.810;2023-03-13T06:30:10;12.00;99.90
17423;DHT22;8829;47.932;7.810;2023-03-13T06:32:37;12.10;99.90
17423;DHT22;8829;47.932;7.810;2023-03-13T06:35:05;12.10;99.90
17423;DHT22;8829;47.932;7.810;2023-03-13T06:37:32;12.20;99.90
17423;DHT22;8829;47.932;7.810;2023-03-13T06:39:59;12.20;99.90
17423;DHT22;8829;47.932;7.810;2023-03-13T06:42:27;12.20;99.90
17423;DHT22;8829;47.932;7.810;2023-03-13T06:44:53;12.20;99.90
17423;DHT22;8829;47.932;7.810;2023-03-13T06:47:20;12.30;99.90
17423;DHT22;8829;47.932;7.810;2023-03-13T06:49:48;12.30;99.90
17423;DHT22;8829;47.932;7.810;2023-03-13T06:52:16;12.30;99.90
17423;DHT22;8829;47.932;7.810;2023-03-13T06:54:45;12.40;99.90
17423;DHT22;8829;47.932;7.810;2023-03-13T06:57:12;12.40;99.90
17423;DHT22;8829;47.932;7.810;2023-03-13T06:59:40;12.30;99.90
17423;DHT22;8829;47.932;7.810;2023-03-13T07:02:08;12.30;99.90
17423;DHT22;8829;47.932;7.810;2023-03-13T07:04:35;12.40;99.90
17423;DHT22;8829;47.932;7.810;2023-03-13T07:07:02;12.40;99.90
17423;DHT22;8829;47.932;7.810;2023-03-13T07:09:28;12.50;99.90
17423;DHT22;8829;47.932;7.810;2023-03-13T07:11:56;12.50;99.90
17423;DHT22;8829;47.932;7.810;2023-03-13T07:14:23;12.50;99.90
17423;DHT22;8829;47.932;7.810;2023-03-13T07:16:51;12.50;99.90
17423;DHT22;8829;47.932;7.810;2023-03-13T07:19:18;12.60;99.90
17423;DHT22;8829;47.932;7.810;2023-03-13T07:21:44;12.60;99.90
17423;DHT22;8829;47.932;7.810;2023-03-13T07:24:11;12.60;99.90
17423;DHT22;8829;47.932;7.810;2023-03-13T07:26:38;12.70;99.90
17423;DHT22;8829;47.932;7.810;2023-03-13T07:29:05;12.80;99.90
17423;DHT22;8829;47.932;7.810;2023-03-13T07:31:31;12.80;99.90
17423;DHT22;8829;47.932;7.810;2023-03-13T07:33:59;12.80;99.90
17423;DHT22;8829;47.932;7.810;2023-03-13T07:36:26;12.90;99.90
17423;DHT22;8829;47.932;7.810;2023-03-13T07:38:54;13.00;99.90
17423;DHT22;8829;47.932;7.810;2023-03-13T07:41:21;13.10;99.90
17423;DHT22;8829;47.932;7.810;2023-03-13T07:43:48;13.10;99.90
17423;DHT22;8829;47.932;7.810;2023-03-13T07:46:16;13.10;99.90
17423;DHT22;8829;47.932;7.810;2023-03-13T07:48:45;13.30;99.90
17423;DHT22;8829;47.932;7.810;2023-03-13T07:51:15;13.50;99.90
17423;DHT22;8829;47.932;7.810;2023-03-13T07:53:42;13.60;99.90
17423;DHT22;8829;47.932;7.810;2023-03-13T07:56:10;13.70;99.90
17423;DHT22;8829;47.932;7.810;2023-03-13T07:58:38;13.90;99.90
17423;DHT22;8829;47.932;7.810;2023-03-13T08:01:09;14.00;99.90
17423;DHT22;8829;47.932;7.810;2023-03-13T08:03:36;14.10;99.90
17423;DHT22;8829;47.932;7.810;2023-03-13T08:06:05;14.30;99.90
17423;DHT22;8829;47.932;7.810;2023-03-13T08:08:33;14.30;99.90
17423;DHT22;8829;47.932;7.810;2023-03-13T08:11:01;14.40;99.90
17423;DHT22;8829;47.932;7.810;2023-03-13T08:13:28;14.30;99.90
17423;DHT22;8829;47.932;7.810;2023-03-13T08:16:01;14.40;99.90
17423;DHT22;8829;47.932;7.810;2023-03-13T08:18:28;14.50;99.90
17423;DHT22;8829;47.932;7.810;2023-03-13T08:21:00;14.60;99.90
17423;DHT22;8829;47.932;7.810;2023-03-13T08:23:27;14.60;99.90
17423;DHT22;8829;47.932;7.810;2023-03-13T08:25:55;14.60;99.90
17423;DHT22;8829;47.932;7.810;2023-03-13T08:28:22;14.50;99.90
17423;DHT22;8829;47.932;7.810;2023-03-13T08:30:48;14.60;99.90
17423;DHT22;8829;47.932;7.810;2023-03-13T08:33:15;14.60;99.90
17423;DHT22;8829;47.932;7.810;2023-03-13T08:35:42;14.60;99.90
17423;DHT22;8829;47.932;7.810;2023-03-13T08:38:08;14.70;99.90
17423;DHT22;8829;47.932;7.810;2023-03-13T08:40:35;14.70;99.90
17423;DHT22;8829;47.932;7.810;2023-03-13T08:43:03;14.70;99.90
17423;DHT22;8829;47.932;7.810;2023-03-13T08:45:30;14.70;99.90
17423;DHT22;8829;47.932;7.810;2023-03-13T08:47:56;14.80;99.90
17423;DHT22;8829;47.932;7.810;2023-03-13T08:50:23;14.80;99.90
17423;DHT22;8829;47.932;7.810;2023-03-13T08:52:50;14.80;99.90
17423;DHT22;8829;47.932;7.810;2023-03-13T08:55:16;14.90;99.90
17423;DHT22;8829;47.932;7.810;2023-03-13T08:57:43;14.90;99.90
17423;DHT22;8829;47.932;7.810;2023-03-13T09:00:12;15.00;99.90
17423;DHT22;8829;47.932;7.810;2023-03-13T09:02:39;15.10;99.90
17423;DHT22;8829;47.932;7.810;2023-03-13T09:05:07;15.20;99.90
17423;DHT22;8829;47.932;7.810;2023-03-13T09:07:33;15.30;99.90
17423;DHT22;8829;47.932;7.810;2023-03-13T09:10:00;15.30;99.90
17423;DHT22;8829;47.932;7.810;2023-03-13T09:12:27;15.20;99.90
17423;DHT22;8829;47.932;7.810;2023-03-13T09:14:55;15.20;99.90
17423;DHT22;8829;47.932;7.810;2023-03-13T09:17:23;15.40;99.90
17423;DHT22;8829;47.932;7.810;2023-03-13T09:19:50;15.90;99.90
17423;DHT22;8829;47.932;7.810;2023-03-13T09:22:17;16.50;99.90
17423;DHT22;8829;47.932;7.810;2023-03-13T09:24:44;16.90;99.90
17423;DHT22;8829;47.932;7.810;2023-03-13T09:27:10;17.20;99.90
17423;DHT22;8829;47.932;7.810;2023-03-13T09:29:37;17.50;99.90
17423;DHT22;8829;47.932;7.810;2023-03-13T09:32:06;17.40;99.90
17423;DHT22;8829;47.932;7.810;2023-03-13T09:34:34;17.20;99.90
17423;DHT22;8829;47.932;7.810;2023-03-13T09:37:01;17.10;99.90
17423;DHT22;8829;47.932;7.810;2023-03-13T09:39:27;17.10;99.90
17423;DHT22;8829;47.932;7.810;2023-03-13T09:42:02;17.10;99.90
17423;DHT22;8829;47.932;7.810;2023-03-13T09:44:34;17.10;99.90
17423;DHT22;8829;47.932;7.810;2023-03-13T09:47:08;17.10;99.90
17423;DHT22;8829;47.932;7.810;2023-03-13T09:49:39;17.00;99.90
17423;DHT22;8829;47.932;7.810;2023-03-13T09:52:15;17.00;99.90
17423;DHT22;8829;47.932;7.810;2023-03-13T09:54:46;17.10;99.90
17423;DHT22;8829;47.932;7.810;2023-03-13T09:57:17;17.30;99.90
17423;DHT22;8829;47.932;7.810;2023-03-13T09:59:50;17.50;99.90
17423;DHT22;8829;47.932;7.810;2023-03-13T10:02:29;17.50;99.90
17423;DHT22;8829;47.932;7.810;2023-03-13T10:05:12;17.40;99.90
17423;DHT22;8829;47.932;7.810;2023-03-13T10:07:39;17.30;99.90
17423;DHT22;8829;47.932;7.810;2023-03-13T10:10:10;17.40;99.90
17423;DHT22;8829;47.932;7.810;2023-03-13T10:12:43;17.40;99.90
17423;DHT22;8829;47.932;7.810;2023-03-13T10:15:34;17.50;99.90
17423;DHT22;8829;47.932;7.810;2023-03-13T10:18:15;17.60;99.90
17423;DHT22;8829;47.932;7.810;2023-03-13T10:20:45;17.70;99.90
17423;DHT22;8829;47.932;7.810;2023-03-13T10:23:15;17.80;99.90
17423;DHT22;8829;47.932;7.810;2023-03-13T10:25:44;17.90;99.90
17423;DHT22;8829;47.932;7.810;2023-03-13T10:28:12;17.90;99.90
17423;DHT22;8829;47.932;7.810;2023-03-13T10:30:43;18.00;99.90
17423;DHT22;8829;47.932;7.810;2023-03-13T10:33:23;18.10;99.90
17423;DHT22;8829;47.932;7.810;2023-03-13T10:36:06;18.10;99.90
17423;DHT22;8829;47.932;7.810;2023-03-13T10:38:44;18.10;99.90
17423;DHT22;8829;47.932;7.810;2023-03-13T10:41:21;18.10;99.90
17423;DHT22;8829;47.932;7.810;2023-03-13T10:43:50;18.10;99.90
17423;DHT22;8829;47.932;7.810;2023-03-13T10:46:24;18.20;99.90
17423;DHT22;8829;47.932;7.810;2023-03-13T10:48:53;18.30;99.90
17423;DHT22;8829;47.932;7.810;2023-03-13T10:51:23;18.40;99.90
17423;DHT22;8829;47.932;7.810;2023-03-13T10:53:50;18.50;99.90
17423;DHT22;8829;47.932;7.810;2023-03-13T10:56:23;18.60;99.90
17423;DHT22;8829;47.932;7.810;2023-03-13T10:58:51;18.70;99.90
17423;DHT22;8829;47.932;7.810;2023-03-13T11:01:21;18.60;99.90
17423;DHT22;8829;47.932;7.810;2023-03-13T11:03:50;18.50;99.90
17423;DHT22;8829;47.932;7.810;2023-03-13T11:06:28;18.40;99.90
17423;DHT22;8829;47.932;7.810;2023-03-13T11:09:10;18.30;99.90
17423;DHT22;8829;47.932;7.810;2023-03-13T11:11:46;18.30;99.90
17423;DHT22;8829;47.932;7.810;2023-03-13T11:14:15;18.30;99.90
17423;DHT22;8829;47.932;7.810;2023-03-13T11:16:46;18.30;99.90
17423;DHT22;8829;47.932;7.810;2023-03-13T11:19:44;18.30;99.90
17423;DHT22;8829;47.932;7.810;2023-03-13T11:22:35;18.30;99.90
17423;DHT22;8829;47.932;7.810;2023-03-13T11:25:20;18.30;99.90
17423;DHT22;8829;47.932;7.810;2023-03-13T11:27:54;18.30;99.90
17423;DHT22;8829;47.932;7.810;2023-03-13T11:30:41;18.30;99.90
17423;DHT22;8829;47.932;7.810;2023-03-13T11:33:22;18.40;99.90
17423;DHT22;8829;47.932;7.810;2023-03-13T11:35:59;18.60;99.90
17423;DHT22;8829;47.932;7.810;2023-03-13T11:38:32;18.60;99.90
17423;DHT22;8829;47.932;7.810;2023-03-13T11:41:06;18.70;99.90
17423;DHT22;8829;47.932;7.810;2023-03-13T11:43:48;18.70;99.90
17423;DHT22;8829;47.932;7.810;2023-03-13T11:46:24;18.70;99.90
17423;DHT22;8829;47.932;7.810;2023-03-13T11:49:17;18.70;99.90
17423;DHT22;8829;47.932;7.810;2023-03-13T11:51:57;18.70;99.90
17423;DHT22;8829;47.932;7.810;2023-03-13T11:54:45;18.80;99.90
17423;DHT22;8829;47.932;7.810;2023-03-13T11:57:20;18.80;99.90
17423;DHT22;8829;47.932;7.810;2023-03-13T12:00:14;18.90;99.90
17423;DHT22;8829;47.932;7.810;2023-03-13T12:02:45;19.10;99.90
17423;DHT22;8829;47.932;7.810;2023-03-13T12:05:17;19.20;99.90
17423;DHT22;8829;47.932;7.810;2023-03-13T12:07:50;19.30;99.90
17423;DHT22;8829;47.932;7.810;2023-03-13T12:10:25;19.40;99.90
17423;DHT22;8829;47.932;7.810;2023-03-13T12:12:58;19.50;99.90
17423;DHT22;8829;47.932;7.810;2023-03-13T12:15:28;19.50;99.90
17423;DHT22;8829;47.932;7.810;2023-03-13T12:17:58;19.60;99.90
17423;DHT22;8829;47.932;7.810;2023-03-13T12:20:30;19.60;99.90
17423;DHT22;8829;47.932;7.810;2023-03-13T12:23:13;19.70;99.90
17423;DHT22;8829;47.932;7.810;2023-03-13T12:25:46;19.80;99.90
17423;DHT22;8829;47.932;7.810;2023-03-13T12:28:23;19.80;99.90
17423;DHT22;8829;47.932;7.810;2023-03-13T12:30:58;19.80;99.90
17423;DHT22;8829;47.932;7.810;2023-03-13T12:33:29;19.90;99.90
17423;DHT22;8829;47.932;7.810;2023-03-13T12:36:05;19.90;99.90
17423;DHT22;8829;47.932;7.810;2023-03-13T12:38:36;20.00;99.90
17423;DHT22;8829;47.932;7.810;2023-03-13T12:41:19;20.00;99.90
17423;DHT22;8829;47.932;7.810;2023-03-13T12:43:50;20.00;99.90
17423;DHT22;8829;47.932;7.810;2023-03-13T12:46:53;20.10;99.90
17423;DHT22;8829;47.932;7.810;2023-03-13T12:50:04;20.20;99.90
17423;DHT22;8829;47.932;7.810;2023-03-13T12:55:46;20.40;99.90
17423;DHT22;8829;47.932;7.810;2023-03-13T12:58:43;20.40;99.90
17423;DHT22;8829;47.932;7.810;2023-03-13T13:01:26;20.40;99.90
17423;DHT22;8829;47.932;7.810;2023-03-13T13:03:57;20.50;99.90
17423;DHT22;8829;47.932;7.810;2023-03-13T13:06:49;20.50;99.90
17423;DHT22;8829;47.932;7.810;2023-03-13T13:09:21;20.60;99.90
17423;DHT22;8829;47.932;7.810;2023-03-13T13:11:49;20.60;99.90
17423;DHT22;8829;47.932;7.810;2023-03-13T13:20:36;20.40;99.90
17423;DHT22;8829;47.932;7.810;2023-03-13T13:23:37;20.40;99.90
17423;DHT22;8829;47.932;7.810;2023-03-13T13:32:39;20.40;99.90
17423;DHT22;8829;47.932;7.810;2023-03-13T13:35:28;20.40;99.90
17423;DHT22;8829;47.932;7.810;2023-03-13T13:38:21;20.40;99.90
17423;DHT22;8829;47.932;7.810;2023-03-13T13:41:01;20.40;99.90
17423;DHT22;8829;47.932;7.810;2023-03-13T13:43:30;20.00;99.90
17423;DHT22;8829;47.932;7.810;2023-03-13T13:46:01;20.30;99.90
17423;DHT22;8829;47.932;7.810;2023-03-13T13:48:32;20.20;99.90
17423;DHT22;8829;47.932;7.810;2023-03-13T13:51:23;20.10;99.90
17423;DHT22;8829;47.932;7.810;2023-03-13T13:53:52;20.00;99.90
17423;DHT22;8829;47.932;7.810;2023-03-13T13:56:41;20.00;99.90
17423;DHT22;8829;47.932;7.810;2023-03-13T13:59:24;20.00;99.90
17423;DHT22;8829;47.932;7.810;2023-03-13T14:02:19;20.00;99.90
17423;DHT22;8829;47.932;7.810;2023-03-13T14:04:59;19.90;99.90
17423;DHT22;8829;47.932;7.810;2023-03-13T14:07:29;19.70;99.90
17423;DHT22;8829;47.932;7.810;2023-03-13T14:10:05;19.70;99.90
17423;DHT22;8829;47.932;7.810;2023-03-13T14:12:34;19.60;99.90
17423;DHT22;8829;47.932;7.810;2023-03-13T14:15:11;19.70;99.90
17423;DHT22;8829;47.932;7.810;2023-03-13T14:17:40;19.80;99.90
17423;DHT22;8829;47.932;7.810;2023-03-13T14:20:23;19.90;99.90
17423;DHT22;8829;47.932;7.810;2023-03-13T14:22:51;19.90;99.90
17423;DHT22;8829;47.932;7.810;2023-03-13T14:25:19;20.10;99.90
17423;DHT22;8829;47.932;7.810;2023-03-13T14:27:47;20.30;99.90
17423;DHT22;8829;47.932;7.810;2023-03-13T14:30:16;20.60;99.90
17423;DHT22;8829;47.932;7.810;2023-03-13T14:32:44;20.80;99.90
17423;DHT22;8829;47.932;7.810;2023-03-13T14:35:14;20.80;99.90
17423;DHT22;8829;47.932;7.810;2023-03-13T14:37:43;20.70;99.90
17423;DHT22;8829;47.932;7.810;2023-03-13T14:40:19;20.60;99.90
17423;DHT22;8829;47.932;7.810;2023-03-13T14:42:48;20.70;99.90
17423;DHT22;8829;47.932;7.810;2023-03-13T14:45:21;20.80;99.90
17423;DHT22;8829;47.932;7.810;2023-03-13T14:47:49;21.00;99.90
17423;DHT22;8829;47.932;7.810;2023-03-13T14:50:17;21.10;99.90
17423;DHT22;8829;47.932;7.810;2023-03-13T14:52:47;21.10;99.90
17423;DHT22;8829;47.932;7.810;2023-03-13T14:55:32;21.10;99.90
17423;DHT22;8829;47.932;7.810;2023-03-13T14:58:01;21.00;99.90
17423;DHT22;8829;47.932;7.810;2023-03-13T15:00:37;20.90;99.90
17423;DHT22;8829;47.932;7.810;2023-03-13T15:03:18;20.80;99.90
17423;DHT22;8829;47.932;7.810;2023-03-13T15:05:47;20.70;99.90
17423;DHT22;8829;47.932;7.810;2023-03-13T15:08:18;20.60;99.90
17423;DHT22;8829;47.932;7.810;2023-03-13T15:10:45;20.60;99.90
17423;DHT22;8829;47.932;7.810;2023-03-13T15:13:16;20.60;99.90
17423;DHT22;8829;47.932;7.810;2023-03-13T15:15:43;20.70;99.90
17423;DHT22;8829;47.932;7.810;2023-03-13T15:18:17;20.60;99.90
17423;DHT22;8829;47.932;7.810;2023-03-13T15:20:48;20.50;99.90
17423;DHT22;8829;47.932;7.810;2023-03-13T15:23:17;20.50;99.90
17423;DHT22;8829;47.932;7.810;2023-03-13T15:25:44;20.50;99.90
17423;DHT22;8829;47.932;7.810;2023-03-13T15:28:17;20.50;99.90
17423;DHT22;8829;47.932;7.810;2023-03-13T15:30:46;20.40;99.90
17423;DHT22;8829;47.932;7.810;2023-03-13T15:33:15;20.40;99.90
17423;DHT22;8829;47.932;7.810;2023-03-13T15:35:42;20.30;99.90
17423;DHT22;8829;47.932;7.810;2023-03-13T15:38:12;20.20;99.90
17423;DHT22;8829;47.932;7.810;2023-03-13T15:40:41;20.10;99.90
17423;DHT22;8829;47.932;7.810;2023-03-13T15:43:08;20.10;99.90
17423;DHT22;8829;47.932;7.810;2023-03-13T15:45:36;20.20;99.90
17423;DHT22;8829;47.932;7.810;2023-03-13T15:48:13;20.20;99.90
17423;DHT22;8829;47.932;7.810;2023-03-13T15:50:40;20.20;99.90
17423;DHT22;8829;47.932;7.810;2023-03-13T15:53:16;20.30;99.90
17423;DHT22;8829;47.932;7.810;2023-03-13T15:55:45;20.30;99.90
17423;DHT22;8829;47.932;7.810;2023-03-13T15:58:12;20.30;99.90
17423;DHT22;8829;47.932;7.810;2023-03-13T16:00:39;20.30;99.90
17423;DHT22;8829;47.932;7.810;2023-03-13T16:03:11;20.20;99.90
17423;DHT22;8829;47.932;7.810;2023-03-13T16:05:39;20.10;99.90
17423;DHT22;8829;47.932;7.810;2023-03-13T16:08:05;20.20;99.90
17423;DHT22;8829;47.932;7.810;2023-03-13T16:10:32;20.20;99.90
17423;DHT22;8829;47.932;7.810;2023-03-13T16:13:00;20.20;99.90
17423;DHT22;8829;47.932;7.810;2023-03-13T16:15:27;20.30;99.90
17423;DHT22;8829;47.932;7.810;2023-03-13T16:17:54;20.40;99.90
17423;DHT22;8829;47.932;7.810;2023-03-13T16:20:22;20.50;99.90